Time;durP1;ratioP1;P1;durP2;ratioP2;P2;SDS_P1;SDS_P2;PMS_P1;PMS_P2;Temp;Humidity;BMP_temperature;BMP_pressure;BME280_temperature;BME280_humidity;BME280_pressure;Samples;Min_cycle;Max_cycle;Signal;HPM_P1;HPM_P2
2023/04/14 00:02:11;;;;;;;1999.90;999.90;;;23.80;99.90;;;;;;5054379;28;20075;-69
2023/04/14 00:04:38;;;;;;;1999.90;999.90;;;23.10;99.90;;;;;;5050986;28;20503;-70
2023/04/14 00:07:07;;;;;;;1999.90;999.90;;;22.60;99.90;;;;;;5046195;28;20052;-71
2023/04/14 00:09:35;;;;;;;1999.90;999.90;;;22.40;99.90;;;;;;5041124;28;20111;-68
2023/04/14 00:12:02;;;;;;;1999.90;999.90;;;22.30;99.90;;;;;;5047268;28;20218;-68
2023/04/14 00:14:30;;;;;;;1999.90;999.90;;;22.40;99.90;;;;;;5043400;28;20029;-68
2023/04/14 00:16:57;;;;;;;1999.90;999.90;;;22.50;99.90;;;;;;5053591;28;20040;-68
2023/04/14 00:19:24;;;;;;;1999.90;999.90;;;22.40;99.90;;;;;;5045720;28;20060;-70
2023/04/14 00:21:52;;;;;;;1999.90;999.90;;;22.30;99.90;;;;;;5047682;28;20029;-68
2023/04/14 00:24:19;;;;;;;1999.90;999.90;;;22.00;99.90;;;;;;5047237;28;20032;-68
2023/04/14 00:26:47;;;;;;;1999.90;999.90;;;21.70;99.90;;;;;;5050471;28;20020;-69
2023/04/14 00:29:14;;;;;;;1999.90;999.90;;;21.50;99.90;;;;;;5045090;28;21481;-70
2023/04/14 00:31:41;;;;;;;1999.90;999.90;;;21.20;99.90;;;;;;5053185;28;20033;-69
2023/04/14 00:34:08;;;;;;;1999.90;999.90;;;21.00;99.90;;;;;;5041967;28;20033;-69
2023/04/14 00:36:36;;;;;;;1999.90;999.90;;;20.90;99.90;;;;;;5049349;28;20111;-68
2023/04/14 00:39:03;;;;;;;1999.90;999.90;;;20.90;99.90;;;;;;5044995;28;20244;-69
2023/04/14 00:41:34;;;;;;;1999.90;999.90;;;21.00;99.90;;;;;;5055126;28;20219;-68
2023/04/14 00:44:02;;;;;;;1999.90;999.90;;;21.10;99.90;;;;;;5047924;28;20037;-68
2023/04/14 00:46:30;;;;;;;1999.90;999.90;;;21.30;99.90;;;;;;5050658;28;20029;-68
2023/04/14 00:48:57;;;;;;;1999.90;999.90;;;21.70;99.90;;;;;;5049421;28;20048;-67
2023/04/14 00:51:26;;;;;;;1999.90;999.90;;;22.10;99.90;;;;;;5053686;28;20660;-67
2023/04/14 00:53:55;;;;;;;1999.90;999.90;;;22.30;99.90;;;;;;5044008;28;20137;-67
2023/04/14 00:56:25;;;;;;;1999.90;999.90;;;22.50;99.90;;;;;;5052327;28;20024;-68
2023/04/14 00:58:52;;;;;;;1999.90;999.90;;;22.70;99.90;;;;;;5045892;28;20392;-69
2023/04/14 01:01:20;;;;;;;1999.90;999.90;;;22.80;99.90;;;;;;5049685;28;20047;-69
2023/04/14 01:03:48;;;;;;;1999.90;999.90;;;23.10;99.90;;;;;;5049037;28;20028;-68
2023/04/14 01:06:15;;;;;;;1999.90;999.90;;;23.40;99.90;;;;;;5040327;28;20648;-69
2023/04/14 01:08:42;;;;;;;1999.90;999.90;;;23.90;99.90;;;;;;5042366;28;20815;-68
2023/04/14 01:11:28;;;;;;;1999.90;999.90;;;24.80;99.90;;;;;;5043666;28;20040;-68
2023/04/14 01:14:31;;;;;;;1999.90;999.90;;;25.60;99.90;;;;;;5034622;28;20656;-69
2023/04/14 01:17:08;;;;;;;1999.90;999.90;;;26.90;99.90;;;;;;5051277;28;20529;-69
2023/04/14 01:19:50;;;;;;;1999.90;999.90;;;28.10;98.90;;;;;;5041986;28;20025;-70
2023/04/14 01:22:21;;;;;;;1999.90;999.90;;;28.90;98.00;;;;;;5047893;28;20033;-69
2023/04/14 01:25:23;;;;;;;1999.90;999.90;;;29.50;96.70;;;;;;5046411;28;20455;-69
2023/04/14 01:28:09;;;;;;;1999.90;999.90;;;30.10;95.20;;;;;;5043561;28;20507;-68
2023/04/14 01:30:54;;;;;;;;;;;30.40;94.90;;;;;;5035840;28;20037;-67
2023/04/14 01:33:26;;;;;;;1999.90;999.90;;;30.40;95.20;;;;;;5036170;28;19948;-67
2023/04/14 01:36:03;;;;;;;1999.90;999.90;;;30.20;95.20;;;;;;5047819;28;20043;-68
2023/04/14 01:38:35;;;;;;;1999.90;999.90;;;29.50;95.00;;;;;;5040385;28;20050;-68
2023/04/14 01:41:08;;;;;;;1999.90;999.90;;;28.60;95.50;;;;;;5035956;28;20499;-68
2023/04/14 01:43:41;;;;;;;1999.90;999.90;;;27.80;96.00;;;;;;5041304;28;20112;-68
2023/04/14 01:46:12;;;;;;;1999.90;999.90;;;27.20;96.20;;;;;;5049158;28;20029;-71
2023/04/14 01:48:41;;;;;;;1999.90;999.90;;;27.40;96.30;;;;;;5025700;28;20052;-68
2023/04/14 01:51:11;;;;;;;1999.90;999.90;;;28.20;96.10;;;;;;5032189;28;20459;-69
2023/04/14 01:53:42;;;;;;;1999.90;999.90;;;28.70;95.80;;;;;;5027543;28;20040;-70
2023/04/14 01:56:12;;;;;;;1999.90;999.90;;;28.80;95.00;;;;;;5031103;28;20108;-67
2023/04/14 01:58:41;;;;;;;1999.90;999.90;;;28.70;95.30;;;;;;5044713;28;20480;-68
2023/04/14 02:01:09;;;;;;;1999.90;999.90;;;28.60;95.30;;;;;;5049006;28;20061;-69
2023/04/14 02:03:37;;;;;;;1999.90;999.90;;;28.20;95.10;;;;;;5045221;28;20081;-69
2023/04/14 02:06:06;;;;;;;1999.90;999.90;;;27.70;95.60;;;;;;5038454;28;20036;-69
2023/04/14 02:08:36;;;;;;;1999.90;999.90;;;27.00;95.60;;;;;;5038610;28;20077;-70
2023/04/14 02:11:05;;;;;;;1999.90;999.90;;;26.60;96.10;;;;;;5039677;28;20254;-71
2023/04/14 02:13:34;;;;;;;1999.90;999.90;;;26.10;96.90;;;;;;5037615;28;20435;-70
2023/04/14 02:16:02;;;;;;;1999.90;999.90;;;25.70;97.70;;;;;;5027667;28;20108;-69
2023/04/14 02:18:32;;;;;;;1999.90;999.90;;;25.30;98.30;;;;;;5039473;28;20104;-68
2023/04/14 02:21:03;;;;;;;1999.90;999.90;;;24.90;98.70;;;;;;5049474;28;20024;-69
2023/04/14 02:23:31;;;;;;;1999.90;999.90;;;24.40;99.90;;;;;;5047533;28;20087;-69
2023/04/14 02:26:10;;;;;;;1999.90;999.90;;;23.80;99.90;;;;;;5046665;28;20119;-68
2023/04/14 02:28:53;;;;;;;1999.90;999.90;;;23.20;99.90;;;;;;5041618;28;20025;-69
2023/04/14 02:31:25;;;;;;;1999.90;999.90;;;22.80;99.90;;;;;;5045111;28;20621;-69
2023/04/14 02:33:57;;;;;;;1999.90;999.90;;;22.40;99.90;;;;;;5044951;28;20029;-69
2023/04/14 02:36:45;;;;;;;1999.90;999.90;;;22.20;99.90;;;;;;5043228;28;20115;-69
2023/04/14 02:39:17;;;;;;;1999.90;999.90;;;22.00;99.90;;;;;;5043250;28;20024;-68
2023/04/14 02:41:46;;;;;;;1999.90;999.90;;;22.00;99.90;;;;;;5045606;28;21064;-69
2023/04/14 02:44:26;;;;;;;1999.90;999.90;;;21.90;99.90;;;;;;5040928;28;20043;-67
2023/04/14 02:47:07;;;;;;;1999.90;999.90;;;21.90;99.90;;;;;;5045753;28;20028;-68
2023/04/14 02:49:47;;;;;;;1999.90;999.90;;;21.90;99.90;;;;;;5045338;28;20045;-68
2023/04/14 02:52:17;;;;;;;1999.90;999.90;;;21.90;99.90;;;;;;5053787;28;20576;-69
2023/04/14 02:54:47;;;;;;;1999.90;999.90;;;21.90;99.90;;;;;;5038548;28;20041;-69
2023/04/14 02:57:15;;;;;;;1999.90;999.90;;;22.50;99.90;;;;;;5033717;28;20058;-69
2023/04/14 02:59:42;;;;;;;1999.90;999.90;;;23.70;99.90;;;;;;5031772;28;20659;-70
2023/04/14 03:02:12;;;;;;;1999.90;999.90;;;24.10;99.90;;;;;;5037708;28;20792;-69
2023/04/14 03:04:40;;;;;;;1999.90;999.90;;;24.10;99.90;;;;;;5033087;28;20593;-68
2023/04/14 03:07:10;;;;;;;1999.90;999.90;;;24.50;99.90;;;;;;5030007;28;20028;-68
2023/04/14 03:09:39;;;;;;;1999.90;999.90;;;25.40;99.90;;;;;;5038874;28;20037;-69
2023/04/14 03:12:11;;;;;;;1999.90;999.90;;;26.10;99.90;;;;;;5039520;28;20065;-68
2023/04/14 03:14:40;;;;;;;1999.90;999.90;;;26.70;99.90;;;;;;5037799;28;20017;-68
2023/04/14 03:17:09;;;;;;;1999.90;999.90;;;27.20;99.90;;;;;;5028955;28;20021;-69
2023/04/14 03:19:39;;;;;;;1999.90;999.90;;;27.60;99.10;;;;;;5031265;28;20033;-67
2023/04/14 03:22:10;;;;;;;1999.90;999.90;;;27.90;99.10;;;;;;5043878;28;20045;-69
2023/04/14 03:24:39;;;;;;;1999.90;999.90;;;28.00;98.70;;;;;;5041426;28;20048;-69
2023/04/14 03:27:20;;;;;;;1999.90;999.90;;;28.20;98.00;;;;;;5040857;28;20036;-67
2023/04/14 03:29:52;;;;;;;1999.90;999.90;;;28.20;97.60;;;;;;5034278;28;20056;-68
2023/04/14 03:32:22;;;;;;;1999.90;999.90;;;28.00;98.20;;;;;;5046554;28;20028;-70
2023/04/14 03:34:54;;;;;;;1999.90;999.90;;;28.30;97.60;;;;;;5049397;28;20035;-69
2023/04/14 03:37:27;;;;;;;1999.90;999.90;;;28.40;97.70;;;;;;5039845;28;20104;-70
2023/04/14 03:39:59;;;;;;;1999.90;999.90;;;28.20;97.50;;;;;;5037973;28;20491;-70
2023/04/14 03:42:29;;;;;;;1999.90;999.90;;;27.70;97.10;;;;;;5041500;28;20034;-69
2023/04/14 03:44:59;;;;;;;1999.90;999.90;;;27.50;97.20;;;;;;5040240;28;20060;-69
2023/04/14 03:47:29;;;;;;;1999.90;999.90;;;27.30;96.40;;;;;;5037876;28;20121;-70
2023/04/14 03:50:02;;;;;;;1999.90;999.90;;;26.80;97.30;;;;;;5032920;28;20487;-69
2023/04/14 03:52:33;;;;;;;1999.90;999.90;;;26.30;97.10;;;;;;5042794;28;20061;-69
2023/04/14 03:55:05;;;;;;;1999.90;999.90;;;25.70;98.00;;;;;;5035838;28;20091;-69
2023/04/14 03:57:33;;;;;;;1999.90;999.90;;;25.20;98.30;;;;;;5034275;28;20078;-68
2023/04/14 04:00:03;;;;;;;1999.90;999.90;;;24.80;98.90;;;;;;5041793;28;21000;-68
2023/04/14 04:02:32;;;;;;;1999.90;999.90;;;24.50;99.30;;;;;;5050684;28;20083;-68
2023/04/14 04:05:00;;;;;;;1999.90;999.90;;;24.10;99.70;;;;;;5052012;28;20479;-68
2023/04/14 04:07:30;;;;;;;1999.90;999.90;;;23.90;99.90;;;;;;5037281;28;20404;-68
2023/04/14 04:09:59;;;;;;;1999.90;999.90;;;23.70;99.90;;;;;;5045444;28;20060;-68
2023/04/14 04:12:27;;;;;;;1999.90;999.90;;;23.50;99.90;;;;;;5048678;28;20082;-68
2023/04/14 04:14:55;;;;;;;1999.90;999.90;;;23.30;99.90;;;;;;5043010;28;20459;-69
2023/04/14 04:17:25;;;;;;;1999.90;999.90;;;23.10;99.90;;;;;;5044881;28;20035;-69
2023/04/14 04:19:56;;;;;;;1999.90;999.90;;;23.10;99.90;;;;;;5040097;28;20040;-69
2023/04/14 04:22:25;;;;;;;1999.90;999.90;;;23.10;99.90;;;;;;5032420;28;20138;-67
2023/04/14 04:24:55;;;;;;;1999.90;999.90;;;22.90;99.90;;;;;;5045461;28;20112;-69
2023/04/14 04:27:23;;;;;;;1999.90;999.90;;;22.60;99.90;;;;;;5032986;28;20042;-68
2023/04/14 04:29:51;;;;;;;1999.90;999.90;;;22.40;99.90;;;;;;5043575;28;20387;-70
2023/04/14 04:32:19;;;;;;;1999.90;999.90;;;22.30;99.90;;;;;;5042750;28;20115;-69
2023/04/14 04:34:49;;;;;;;1999.90;999.90;;;22.20;99.90;;;;;;5045921;28;20029;-69
2023/04/14 04:37:18;;;;;;;1999.90;999.90;;;22.30;99.90;;;;;;5044446;28;20029;-70
2023/04/14 04:39:47;;;;;;;1999.90;999.90;;;22.30;99.90;;;;;;5048574;28;20082;-68
2023/04/14 04:42:15;;;;;;;1999.90;999.90;;;22.40;99.90;;;;;;5056399;28;20037;-69
2023/04/14 04:44:42;;;;;;;1999.90;999.90;;;22.60;99.90;;;;;;5044388;28;20036;-68
2023/04/14 04:47:12;;;;;;;1999.90;999.90;;;22.80;99.80;;;;;;5047426;28;20534;-69
2023/04/14 04:49:39;;;;;;;1999.90;999.90;;;23.20;99.70;;;;;;5034750;28;20041;-68
2023/04/14 04:52:07;;;;;;;1999.90;999.90;;;23.30;98.30;;;;;;5045775;28;20060;-69
2023/04/14 04:54:34;;;;;;;1999.90;999.90;;;23.30;98.40;;;;;;5045758;28;20065;-69
2023/04/14 04:57:02;;;;;;;1999.90;999.90;;;23.40;98.40;;;;;;5052351;28;20512;-69
2023/04/14 04:59:29;;;;;;;1999.90;999.90;;;23.70;98.60;;;;;;5034980;28;20037;-70
2023/04/14 05:01:57;;;;;;;1999.90;999.90;;;24.10;97.70;;;;;;5047719;28;20021;-68
2023/04/14 05:04:24;;;;;;;1999.90;999.90;;;24.20;97.10;;;;;;5039347;28;20120;-68
2023/04/14 05:06:52;;;;;;;1999.90;999.90;;;23.90;97.30;;;;;;5042235;28;20029;-70
2023/04/14 05:09:19;;;;;;;1999.90;999.90;;;23.80;97.80;;;;;;5044219;28;20044;-69
2023/04/14 05:11:47;;;;;;;1999.90;999.90;;;23.70;98.00;;;;;;5043627;28;20061;-71
2023/04/14 05:14:14;;;;;;;1999.90;999.90;;;23.50;98.60;;;;;;5048690;28;20041;-70
2023/04/14 05:16:41;;;;;;;1999.90;999.90;;;23.40;98.70;;;;;;5044363;28;20116;-69
2023/04/14 05:19:09;;;;;;;1999.90;999.90;;;23.30;99.60;;;;;;5043576;28;20430;-67
2023/04/14 05:21:36;;;;;;;1999.90;999.90;;;23.30;99.70;;;;;;5045819;28;20082;-68
2023/04/14 05:24:04;;;;;;;1999.90;999.90;;;23.50;99.80;;;;;;5042610;28;20471;-68
2023/04/14 05:26:31;;;;;;;1999.90;999.90;;;23.50;99.70;;;;;;5034858;28;20036;-69
2023/04/14 05:28:59;;;;;;;1999.90;999.90;;;23.50;99.60;;;;;;5034450;28;20045;-69
2023/04/14 05:31:26;;;;;;;1999.90;999.90;;;23.20;99.80;;;;;;5038984;28;20028;-69
2023/04/14 05:33:53;;;;;;;1999.90;999.90;;;23.10;99.90;;;;;;5036669;28;20526;-69
2023/04/14 05:36:21;;;;;;;1999.90;999.90;;;23.10;99.70;;;;;;5055312;28;20050;-69
2023/04/14 05:38:48;;;;;;;1999.90;999.90;;;23.20;99.90;;;;;;5047363;28;20021;-70
2023/04/14 05:41:15;;;;;;;1999.90;999.90;;;23.10;99.10;;;;;;5050872;28;20051;-69
2023/04/14 05:43:42;;;;;;;1999.90;999.90;;;23.00;98.70;;;;;;5041223;28;20021;-69
2023/04/14 05:46:10;;;;;;;1999.90;999.90;;;22.80;99.00;;;;;;5053645;28;20021;-69
2023/04/14 05:48:37;;;;;;;1999.90;999.90;;;22.80;99.00;;;;;;5039993;28;20031;-70
2023/04/14 05:51:05;;;;;;;1999.90;999.90;;;22.70;99.20;;;;;;5050057;28;20021;-69
2023/04/14 05:53:32;;;;;;;1999.90;999.90;;;22.60;99.40;;;;;;5039442;28;20029;-69
2023/04/14 05:56:00;;;;;;;1999.90;999.90;;;22.60;99.40;;;;;;5040759;28;20523;-67
2023/04/14 05:58:27;;;;;;;1999.90;999.90;;;22.60;99.60;;;;;;5052303;28;20033;-69
2023/04/14 06:00:54;;;;;;;1999.90;999.90;;;22.60;99.40;;;;;;5043614;28;20040;-69
2023/04/14 06:03:22;;;;;;;1999.90;999.90;;;22.60;99.40;;;;;;5049363;28;20021;-69
2023/04/14 06:05:49;;;;;;;1999.90;999.90;;;22.50;99.40;;;;;;5049961;28;20487;-69
2023/04/14 06:08:18;;;;;;;1999.90;999.90;;;22.40;99.20;;;;;;5037884;28;20515;-69
2023/04/14 06:10:45;;;;;;;1999.90;999.90;;;22.20;99.20;;;;;;5051514;28;20619;-69
2023/04/14 06:13:14;;;;;;;1999.90;999.90;;;22.10;99.50;;;;;;5056869;28;20404;-70
2023/04/14 06:15:41;;;;;;;1999.90;999.90;;;21.90;99.70;;;;;;5048997;28;20025;-70
2023/04/14 06:18:09;;;;;;;1999.90;999.90;;;21.80;99.90;;;;;;5053910;28;20123;-70
2023/04/14 06:20:36;;;;;;;1999.90;999.90;;;21.70;99.90;;;;;;5048381;28;20028;-68
2023/04/14 06:23:04;;;;;;;1999.90;999.90;;;21.60;99.90;;;;;;5047780;28;20238;-69
2023/04/14 06:25:33;;;;;;;1999.90;999.90;;;21.50;99.90;;;;;;5044313;28;20487;-70
2023/04/14 06:28:03;;;;;;;1999.90;999.90;;;21.40;99.90;;;;;;5045016;28;20034;-69
2023/04/14 06:30:31;;;;;;;1999.90;999.90;;;21.30;99.90;;;;;;5047486;28;20028;-70
2023/04/14 06:33:03;;;;;;;1999.90;999.90;;;21.40;99.90;;;;;;5046533;28;20033;-71
2023/04/14 06:35:34;;;;;;;1999.90;999.90;;;21.50;99.90;;;;;;5040239;28;20384;-68
2023/04/14 06:38:02;;;;;;;1999.90;999.90;;;21.80;99.90;;;;;;5046405;28;20059;-68
2023/04/14 06:40:29;;;;;;;1999.90;999.90;;;22.00;99.90;;;;;;5043648;28;20524;-69
2023/04/14 06:42:56;;;;;;;1999.90;999.90;;;22.20;99.90;;;;;;5052525;28;20047;-70
2023/04/14 06:45:24;;;;;;;1999.90;999.90;;;22.40;99.90;;;;;;5051630;28;20499;-69
2023/04/14 06:47:51;;;;;;;1999.90;999.90;;;22.50;99.90;;;;;;5048645;28;20032;-69
2023/04/14 06:50:19;;;;;;;1999.90;999.90;;;22.40;99.90;;;;;;5042564;28;20042;-70
2023/04/14 06:52:46;;;;;;;1999.90;999.90;;;22.20;99.90;;;;;;5048403;28;20029;-69
2023/04/14 06:55:14;;;;;;;1999.90;999.90;;;21.80;99.90;;;;;;5042267;28;20056;-69
2023/04/14 06:57:41;;;;;;;1999.90;999.90;;;21.60;99.90;;;;;;5042871;28;20074;-70
2023/04/14 07:00:10;;;;;;;1999.90;999.90;;;21.50;99.90;;;;;;5036055;28;20086;-71
2023/04/14 07:02:37;;;;;;;1999.90;999.90;;;21.30;99.90;;;;;;5051569;28;20029;-70
2023/04/14 07:05:06;;;;;;;1999.90;999.90;;;21.20;99.90;;;;;;5047118;28;20032;-70
2023/04/14 07:07:39;;;;;;;1999.90;999.90;;;21.20;99.90;;;;;;5054904;28;20037;-69
2023/04/14 07:10:09;;;;;;;1999.90;999.90;;;21.20;99.90;;;;;;5045826;28;20510;-70
2023/04/14 07:12:37;;;;;;;1999.90;999.90;;;21.10;99.90;;;;;;5057340;28;20060;-70
2023/04/14 07:15:05;;;;;;;1999.90;999.90;;;21.00;99.90;;;;;;5042913;28;20029;-70
2023/04/14 07:17:35;;;;;;;1999.90;999.90;;;20.90;99.90;;;;;;5050022;28;20092;-69
2023/04/14 07:20:03;;;;;;;1999.90;999.90;;;20.90;99.90;;;;;;5046424;28;20058;-70
2023/04/14 07:22:32;;;;;;;1999.90;999.90;;;20.90;99.90;;;;;;5049246;28;20024;-70
2023/04/14 07:24:59;;;;;;;1999.90;999.90;;;20.80;99.90;;;;;;5044030;28;20040;-71
2023/04/14 07:27:27;;;;;;;1999.90;999.90;;;20.80;99.90;;;;;;5047275;28;20024;-70
2023/04/14 07:29:55;;;;;;;1999.90;999.90;;;20.70;99.90;;;;;;5046349;28;20065;-69
2023/04/14 07:32:22;;;;;;;1999.90;999.90;;;20.50;99.90;;;;;;5054049;28;20032;-69
2023/04/14 07:34:50;;;;;;;1999.90;999.90;;;20.30;99.90;;;;;;5046814;28;20040;-68
2023/04/14 07:37:18;;;;;;;1999.90;999.90;;;20.20;99.90;;;;;;5034513;28;20025;-70
2023/04/14 07:39:46;;;;;;;1999.90;999.90;;;20.10;99.90;;;;;;5041367;28;20040;-67
2023/04/14 07:42:14;;;;;;;1999.90;999.90;;;20.00;99.90;;;;;;5045939;28;20025;-72
2023/04/14 07:44:41;;;;;;;1999.90;999.90;;;19.80;99.90;;;;;;5046557;28;20027;-69
2023/04/14 07:47:08;;;;;;;1999.90;999.90;;;19.70;99.90;;;;;;5042945;28;20025;-69
2023/04/14 07:49:36;;;;;;;1999.90;999.90;;;19.60;99.90;;;;;;5042357;28;20037;-71
2023/04/14 07:52:03;;;;;;;1999.90;999.90;;;19.50;99.90;;;;;;5046753;28;20055;-71
2023/04/14 07:54:31;;;;;;;1999.90;999.90;;;19.40;99.90;;;;;;5051828;28;20560;-70
2023/04/14 07:56:58;;;;;;;1999.90;999.90;;;19.20;99.90;;;;;;5053870;28;20033;-70
2023/04/14 07:59:26;;;;;;;1999.90;999.90;;;19.10;99.90;;;;;;5050038;28;20028;-69
2023/04/14 08:01:53;;;;;;;1999.90;999.90;;;19.00;99.90;;;;;;5043198;28;20563;-70
2023/04/14 08:04:21;;;;;;;1999.90;999.90;;;18.90;99.90;;;;;;5044588;28;20127;-70
2023/04/14 08:06:48;;;;;;;1999.90;999.90;;;18.80;99.90;;;;;;5046396;28;20052;-71
2023/04/14 08:09:16;;;;;;;1999.90;999.90;;;18.80;99.90;;;;;;5044052;28;20677;-71
2023/04/14 08:11:43;;;;;;;1999.90;999.90;;;18.70;99.90;;;;;;5052616;28;20033;-71
2023/04/14 08:14:10;;;;;;;1999.90;999.90;;;18.60;99.90;;;;;;5047323;28;20441;-69
2023/04/14 08:16:38;;;;;;;1999.90;999.90;;;18.60;99.90;;;;;;5050756;28;20040;-69
2023/04/14 08:19:05;;;;;;;1999.90;999.90;;;18.60;99.90;;;;;;5045786;28;20383;-69
2023/04/14 08:21:33;;;;;;;1999.90;999.90;;;18.50;99.90;;;;;;5049932;28;20480;-69
2023/04/14 08:24:00;;;;;;;1999.90;999.90;;;18.50;99.90;;;;;;5047221;28;20036;-69
2023/04/14 08:26:28;;;;;;;1999.90;999.90;;;18.50;99.90;;;;;;5042355;28;20041;-70
2023/04/14 08:28:55;;;;;;;1999.90;999.90;;;18.40;99.90;;;;;;5046736;28;20028;-70
2023/04/14 08:31:25;;;;;;;1999.90;999.90;;;18.40;99.90;;;;;;5046091;28;20029;-70
2023/04/14 08:33:52;;;;;;;1999.90;999.90;;;18.50;99.90;;;;;;5052857;28;20025;-70
2023/04/14 08:36:20;;;;;;;1999.90;999.90;;;18.50;99.90;;;;;;5048776;28;20033;-70
2023/04/14 08:38:47;;;;;;;1999.90;999.90;;;18.50;99.90;;;;;;5046109;28;20029;-70
2023/04/14 08:41:18;;;;;;;1999.90;999.90;;;18.50;99.90;;;;;;5050574;28;20033;-70
2023/04/14 08:43:45;;;;;;;1999.90;999.90;;;18.60;99.90;;;;;;5047659;28;20038;-69
2023/04/14 08:46:15;;;;;;;1999.90;999.90;;;18.50;99.90;;;;;;5044294;28;20150;-69
2023/04/14 08:48:46;;;;;;;1999.90;999.90;;;18.50;99.90;;;;;;5046427;28;20476;-69
2023/04/14 08:51:34;;;;;;;1999.90;999.90;;;18.50;99.90;;;;;;5062046;28;20036;-70
2023/04/14 08:54:14;;;;;;;1999.90;999.90;;;18.50;99.90;;;;;;5051649;28;20090;-70
2023/04/14 08:56:42;;;;;;;1999.90;999.90;;;18.40;99.90;;;;;;5048466;28;20395;-69
2023/04/14 08:59:11;;;;;;;1999.90;999.90;;;18.40;99.90;;;;;;5047098;28;20059;-70
2023/04/14 09:01:39;;;;;;;1999.90;999.90;;;18.30;99.90;;;;;;5055387;28;20364;-69
2023/04/14 09:04:07;;;;;;;1999.90;999.90;;;18.30;99.90;;;;;;5058942;28;20041;-70
2023/04/14 09:06:35;;;;;;;1999.90;999.90;;;18.30;99.90;;;;;;5059538;28;20391;-71
2023/04/14 09:09:06;;;;;;;1999.90;999.90;;;18.20;99.90;;;;;;5048112;28;20068;-68
2023/04/14 09:11:34;;;;;;;1999.90;999.90;;;18.20;99.90;;;;;;5052062;28;20063;-69
2023/04/14 09:14:01;;;;;;;1999.90;999.90;;;18.20;99.90;;;;;;5050181;28;20033;-69
2023/04/14 09:16:29;;;;;;;1999.90;999.90;;;18.20;99.90;;;;;;5036654;28;20043;-69
2023/04/14 09:18:57;;;;;;;1999.90;999.90;;;18.20;99.90;;;;;;5035437;28;20895;-71
2023/04/14 09:21:26;;;;;;;1999.90;999.90;;;18.20;99.90;;;;;;5032583;28;20022;-69
2023/04/14 09:23:54;;;;;;;1999.90;999.90;;;18.30;99.90;;;;;;5034558;28;20108;-69
2023/04/14 09:26:21;;;;;;;1999.90;999.90;;;18.30;99.90;;;;;;5034083;28;20113;-69
2023/04/14 09:28:49;;;;;;;1999.90;999.90;;;18.20;99.90;;;;;;5029019;28;20033;-70
2023/04/14 09:31:17;;;;;;;1999.90;999.90;;;18.20;99.90;;;;;;5037735;28;20084;-69
2023/04/14 09:33:47;;;;;;;1999.90;999.90;;;18.20;99.90;;;;;;5027378;28;20030;-69
2023/04/14 09:36:26;;;;;;;1999.90;999.90;;;18.10;99.90;;;;;;5035822;28;20045;-69
2023/04/14 09:38:54;;;;;;;1999.90;999.90;;;18.00;99.90;;;;;;5027763;28;20032;-70
2023/04/14 09:41:26;;;;;;;1999.90;999.90;;;18.00;99.90;;;;;;5032626;28;20459;-71
2023/04/14 09:43:53;;;;;;;1999.90;999.90;;;17.90;99.90;;;;;;5038692;28;20028;-70
2023/04/14 09:46:21;;;;;;;1999.90;999.90;;;17.90;99.90;;;;;;5051648;28;20086;-71
2023/04/14 09:48:56;;;;;;;1999.90;999.90;;;17.80;99.90;;;;;;5050517;28;20084;-69
2023/04/14 09:51:33;;;;;;;1999.90;999.90;;;17.80;99.90;;;;;;5043104;28;20040;-69
2023/04/14 09:54:04;;;;;;;1999.90;999.90;;;17.80;99.90;;;;;;5039231;28;20033;-70
2023/04/14 09:56:31;;;;;;;1999.90;999.90;;;17.80;99.90;;;;;;5040041;28;20036;-70
2023/04/14 09:59:01;;;;;;;1999.90;999.90;;;17.80;99.90;;;;;;5042026;28;20379;-69
2023/04/14 10:01:33;;;;;;;1999.90;999.90;;;17.90;99.90;;;;;;5048235;28;20037;-71
2023/04/14 10:04:02;;;;;;;1999.90;999.90;;;18.00;99.90;;;;;;5041525;28;20040;-68
2023/04/14 10:06:32;;;;;;;1999.90;999.90;;;18.00;99.90;;;;;;5044992;28;20356;-71
2023/04/14 10:09:00;;;;;;;1999.90;999.90;;;18.00;99.90;;;;;;5045365;28;20052;-70
2023/04/14 10:11:31;;;;;;;1999.90;999.90;;;18.00;99.90;;;;;;5035019;28;20430;-71
2023/04/14 10:14:03;;;;;;;1999.90;999.90;;;18.00;99.90;;;;;;5041741;28;20047;-70
2023/04/14 10:16:31;;;;;;;1999.90;999.90;;;18.00;99.90;;;;;;5046866;28;20056;-71
2023/04/14 10:18:58;;;;;;;1999.90;999.90;;;18.00;99.90;;;;;;5045566;28;20040;-69
2023/04/14 10:21:27;;;;;;;1999.90;999.90;;;18.00;99.90;;;;;;5045725;28;20455;-70
2023/04/14 10:23:56;;;;;;;1999.90;999.90;;;18.00;99.90;;;;;;5041503;28;20377;-71
2023/04/14 10:26:24;;;;;;;1999.90;999.90;;;18.00;99.90;;;;;;5041377;28;20033;-69
2023/04/14 10:28:53;;;;;;;1999.90;999.90;;;18.00;99.90;;;;;;5049573;28;20384;-70
2023/04/14 10:31:41;;;;;;;1999.90;999.90;;;18.00;99.90;;;;;;5043245;28;20196;-70
2023/04/14 10:34:12;;;;;;;1999.90;999.90;;;18.00;99.90;;;;;;5043532;28;20024;-71
2023/04/14 10:36:40;;;;;;;1999.90;999.90;;;18.00;99.90;;;;;;5034957;28;20029;-71
2023/04/14 10:39:09;;;;;;;1999.90;999.90;;;18.00;99.90;;;;;;5029569;28;20115;-70
2023/04/14 10:41:44;;;;;;;1999.90;999.90;;;18.00;99.90;;;;;;5049195;28;20041;-71
2023/04/14 10:44:31;;;;;;;1999.90;999.90;;;17.90;99.90;;;;;;5052746;28;20478;-71
2023/04/14 10:47:04;;;;;;;1999.90;999.90;;;17.90;99.90;;;;;;5043603;28;20032;-71
2023/04/14 10:49:38;;;;;;;1999.90;999.90;;;17.90;99.90;;;;;;5047288;28;20115;-71
2023/04/14 10:52:27;;;;;;;1999.90;999.90;;;17.90;99.90;;;;;;5041739;28;20033;-70
2023/04/14 10:55:00;;;;;;;1999.90;999.90;;;17.80;99.90;;;;;;5042962;28;20128;-74
2023/04/14 10:57:28;;;;;;;1999.90;999.90;;;17.70;99.90;;;;;;5052988;28;20029;-70
2023/04/14 10:59:57;;;;;;;1999.90;999.90;;;17.60;99.90;;;;;;5053099;28;20032;-73
2023/04/14 11:02:32;;;;;;;1999.90;999.90;;;17.50;99.90;;;;;;5057303;28;20033;-73
2023/04/14 11:05:12;;;;;;;1999.90;999.90;;;17.40;99.90;;;;;;5047642;28;20110;-71
2023/04/14 11:07:50;;;;;;;1999.90;999.90;;;17.40;99.90;;;;;;5054096;28;20114;-72
2023/04/14 11:10:20;;;;;;;1999.90;999.90;;;17.30;99.90;;;;;;5041780;28;20033;-70
2023/04/14 11:12:55;;;;;;;1999.90;999.90;;;17.20;99.90;;;;;;5043289;28;20016;-71
2023/04/14 11:15:22;;;;;;;1999.90;999.90;;;17.20;99.90;;;;;;5030382;28;20041;-71
2023/04/14 11:17:51;;;;;;;1999.90;999.90;;;17.10;99.90;;;;;;5029753;28;20762;-72
2023/04/14 11:20:22;;;;;;;1999.90;999.90;;;17.10;99.90;;;;;;5033078;28;20028;-71
2023/04/14 11:22:51;;;;;;;1999.90;999.90;;;17.00;99.90;;;;;;5027704;28;20047;-71
2023/04/14 11:25:21;;;;;;;1999.90;999.90;;;17.00;99.90;;;;;;5030661;28;20030;-69
2023/04/14 11:27:48;;;;;;;1999.90;999.90;;;17.00;99.90;;;;;;5031101;28;20032;-72
2023/04/14 11:30:17;;;;;;;1999.90;999.90;;;16.90;99.90;;;;;;5026472;28;20127;-72
2023/04/14 11:32:53;;;;;;;1999.90;999.90;;;16.90;99.90;;;;;;5030873;28;21942;-71
2023/04/14 11:35:22;;;;;;;;;;;16.80;99.90;;;;;;5029279;28;20048;-70
2023/04/14 11:37:52;;;;;;;1999.90;999.90;;;16.70;99.90;;;;;;5028079;28;19917;-70
2023/04/14 11:40:20;;;;;;;1999.90;999.90;;;16.70;99.90;;;;;;5033176;28;20030;-71
2023/04/14 11:42:53;;;;;;;1999.90;999.90;;;16.60;99.90;;;;;;5054701;28;20028;-72
2023/04/14 11:45:20;;;;;;;1999.90;999.90;;;16.60;99.90;;;;;;5043682;28;20056;-72
2023/04/14 11:47:58;;;;;;;1999.90;999.90;;;16.50;99.90;;;;;;5055031;28;20051;-73
2023/04/14 11:50:27;;;;;;;1999.90;999.90;;;16.40;99.90;;;;;;5044175;28;20102;-70
2023/04/14 11:52:58;;;;;;;1999.90;999.90;;;16.30;99.90;;;;;;5043476;28;20571;-71
2023/04/14 11:55:29;;;;;;;1999.90;999.90;;;16.30;99.90;;;;;;5042885;28;20033;-70
2023/04/14 11:57:58;;;;;;;1999.90;999.90;;;16.20;99.90;;;;;;5034758;28;20059;-71
2023/04/14 12:00:26;;;;;;;1999.90;999.90;;;16.20;99.90;;;;;;5042039;28;20041;-71
2023/04/14 12:02:55;;;;;;;1999.90;999.90;;;16.20;99.90;;;;;;5041502;28;20113;-72
2023/04/14 12:05:29;;;;;;;1999.90;999.90;;;16.10;99.90;;;;;;5031634;28;20024;-70
2023/04/14 12:08:02;;;;;;;1999.90;999.90;;;16.10;99.90;;;;;;5031439;28;20076;-70
2023/04/14 12:10:29;;;;;;;1999.90;999.90;;;16.10;99.90;;;;;;5038192;28;20395;-71
2023/04/14 12:13:04;;;;;;;1999.90;999.90;;;16.00;99.90;;;;;;5048564;28;20131;-70
2023/04/14 12:15:35;;;;;;;1999.90;999.90;;;16.00;99.90;;;;;;5040404;28;20037;-71